Time;durP1;ratioP1;P1;durP2;ratioP2;P2;SDS_P1;SDS_P2;PMS_P1;PMS_P2;Temp;Humidity;BMP_temperature;BMP_pressure;BME280_temperature;BME280_humidity;BME280_pressure;Samples;Min_cycle;Max_cycle;Signal;HPM_P1;HPM_P2
2022/11/25 00:00:02;;;;;;;7.35;5.57;;;9.70;96.70;;;;;;5065234;28;20072;-71
2022/11/25 00:02:42;;;;;;;7.10;5.43;;;9.70;96.70;;;;;;5061927;28;20411;-71
2022/11/25 00:05:11;;;;;;;7.35;5.53;;;9.60;96.70;;;;;;5064328;28;20053;-71
2022/11/25 00:07:40;;;;;;;7.78;5.80;;;9.70;96.70;;;;;;5061693;28;20553;-71
2022/11/25 00:10:08;;;;;;;7.72;5.43;;;9.60;96.70;;;;;;5059402;28;20067;-71
2022/11/25 00:12:36;;;;;;;7.85;5.65;;;9.70;96.70;;;;;;5063608;28;20596;-71
2022/11/25 00:15:05;;;;;;;8.68;6.15;;;9.90;96.70;;;;;;5063243;28;20147;-71
2022/11/25 00:17:33;;;;;;;6.90;5.18;;;9.90;96.70;;;;;;5061783;28;20318;-71
2022/11/25 00:20:03;;;;;;;6.65;5.57;;;9.90;96.70;;;;;;5062864;28;20529;-71
2022/11/25 00:22:31;;;;;;;7.65;6.45;;;10.00;96.70;;;;;;5062139;28;20045;-71
2022/11/25 00:25:00;;;;;;;8.05;6.28;;;9.90;96.70;;;;;;5062430;28;20064;-71
2022/11/25 00:27:28;;;;;;;8.35;6.00;;;9.90;96.70;;;;;;5062347;28;20036;-71
2022/11/25 00:29:59;;;;;;;6.95;5.38;;;10.00;96.70;;;;;;5058206;28;20590;-71
2022/11/25 00:32:27;;;;;;;7.78;5.40;;;10.00;96.70;;;;;;5061495;28;20056;-71
2022/11/25 00:34:55;;;;;;;6.57;5.85;;;10.10;96.70;;;;;;5061390;28;20036;-71
2022/11/25 00:37:23;;;;;;;7.53;5.55;;;10.10;96.70;;;;;;5046803;28;20048;-71
2022/11/25 00:39:51;;;;;;;9.00;6.18;;;10.10;96.70;;;;;;5061943;28;20048;-71
2022/11/25 00:45:08;;;;;;;7.18;5.47;;;10.10;96.70;;;;;;5061892;28;20052;-71
2022/11/25 00:47:36;;;;;;;8.82;5.90;;;10.10;96.70;;;;;;5062217;28;20068;-71
2022/11/25 00:50:05;;;;;;;8.38;6.25;;;10.10;96.70;;;;;;5063501;28;20482;-71
2022/11/25 00:52:35;;;;;;;7.55;5.40;;;10.00;96.70;;;;;;5062347;28;20548;-71
2022/11/25 00:55:04;;;;;;;6.95;5.93;;;10.00;96.70;;;;;;5061229;28;20056;-71
2022/11/25 00:57:35;;;;;;;7.30;6.07;;;10.10;96.70;;;;;;5055432;28;20128;-71
2022/11/25 01:00:05;;;;;;;7.15;6.05;;;10.10;96.70;;;;;;5061635;28;20052;-71
2022/11/25 01:02:33;;;;;;;7.70;6.03;;;10.10;96.70;;;;;;5062078;28;20086;-73
2022/11/25 01:05:01;;;;;;;7.50;5.90;;;10.20;96.70;;;;;;5061484;28;20044;-71
2022/11/25 01:07:29;;;;;;;8.05;6.35;;;10.10;96.70;;;;;;5061844;28;20045;-71
2022/11/25 01:09:57;;;;;;;7.43;6.38;;;10.20;96.70;;;;;;5062427;28;20590;-71
2022/11/25 01:12:25;;;;;;;7.90;6.63;;;10.20;96.70;;;;;;5061488;28;21405;-71
2022/11/25 01:14:54;;;;;;;8.70;7.15;;;10.10;96.70;;;;;;5062712;28;20059;-71
2022/11/25 01:17:22;;;;;;;7.68;6.70;;;10.10;96.70;;;;;;5045297;28;20616;-71
2022/11/25 01:19:53;;;;;;;7.55;6.20;;;10.10;96.70;;;;;;5060298;28;20517;-71
2022/11/25 01:22:21;;;;;;;8.38;6.32;;;10.10;96.70;;;;;;5061580;28;20043;-71
2022/11/25 01:24:49;;;;;;;9.07;6.53;;;10.10;96.70;;;;;;5045168;28;20561;-71
2022/11/25 01:27:19;;;;;;;7.32;6.20;;;10.10;96.70;;;;;;5055191;28;20051;-71
2022/11/25 01:29:48;;;;;;;7.55;6.38;;;10.10;96.70;;;;;;5062060;28;20131;-71
2022/11/25 01:32:18;;;;;;;7.60;6.50;;;10.10;96.70;;;;;;5062553;28;20094;-71
2022/11/25 01:34:46;;;;;;;7.53;5.43;;;10.10;96.70;;;;;;5060912;28;20059;-71
2022/11/25 01:37:14;;;;;;;8.25;5.75;;;10.20;96.70;;;;;;5054031;28;20641;-71
2022/11/25 01:39:43;;;;;;;7.57;5.70;;;10.20;96.70;;;;;;5062672;28;20044;-72
2022/11/25 01:42:11;;;;;;;6.13;5.53;;;10.20;96.70;;;;;;5059932;28;20048;-72
2022/11/25 01:44:42;;;;;;;7.32;5.68;;;10.10;96.70;;;;;;5059047;28;20044;-73
2022/11/25 01:47:14;;;;;;;5.95;5.35;;;10.10;96.70;;;;;;5060255;28;20152;-72
2022/11/25 01:49:46;;;;;;;8.40;5.45;;;10.10;96.70;;;;;;5056907;28;20114;-72
2022/11/25 01:52:18;;;;;;;7.57;5.13;;;10.10;96.70;;;;;;5044926;28;20125;-72
2022/11/25 01:54:52;;;;;;;5.68;4.70;;;10.20;96.70;;;;;;5061297;28;20152;-72
2022/11/25 01:57:23;;;;;;;4.78;3.80;;;10.10;96.70;;;;;;5061017;28;20527;-72
2022/11/25 01:59:55;;;;;;;5.30;4.43;;;10.10;96.70;;;;;;5062669;28;20079;-71
2022/11/25 02:02:23;;;;;;;7.70;3.85;;;10.10;96.70;;;;;;5060220;28;20552;-72
2022/11/25 02:04:53;;;;;;;5.13;3.83;;;10.10;96.70;;;;;;5060428;28;20140;-71
2022/11/25 02:07:28;;;;;;;4.82;3.97;;;10.10;96.70;;;;;;5060654;28;20181;-71
2022/11/25 02:09:57;;;;;;;6.75;3.63;;;10.20;96.70;;;;;;5060449;28;20075;-72
2022/11/25 02:12:27;;;;;;;4.57;3.90;;;10.10;96.70;;;;;;5061000;28;20079;-72
2022/11/25 02:14:59;;;;;;;4.78;3.83;;;10.10;96.70;;;;;;5061870;28;20043;-72
2022/11/25 02:17:27;;;;;;;4.40;3.97;;;10.10;96.70;;;;;;5060881;28;20083;-72
2022/11/25 02:20:05;;;;;;;6.20;4.82;;;10.10;96.70;;;;;;5061743;28;20481;-72
2022/11/25 02:22:44;;;;;;;5.82;4.40;;;10.10;96.70;;;;;;5060277;28;20151;-72
2022/11/25 02:25:20;;;;;;;6.47;4.93;;;10.00;96.70;;;;;;5060540;28;20061;-72
2022/11/25 02:27:51;;;;;;;7.43;4.72;;;10.00;96.70;;;;;;5061291;28;20692;-71
2022/11/25 02:30:19;;;;;;;7.28;4.38;;;10.00;96.70;;;;;;5061462;28;20573;-72
2022/11/25 02:32:48;;;;;;;9.20;4.32;;;10.00;96.70;;;;;;5051754;28;21010;-72
2022/11/25 02:35:26;;;;;;;5.85;4.38;;;10.10;96.70;;;;;;5062109;28;20131;-72
2022/11/25 02:37:58;;;;;;;5.32;4.18;;;10.10;96.70;;;;;;5059727;28;20091;-71
2022/11/25 02:40:28;;;;;;;5.32;4.57;;;10.10;96.70;;;;;;5060864;28;20553;-71
2022/11/25 02:42:59;;;;;;;7.82;5.18;;;10.10;96.70;;;;;;5042693;28;20774;-72
2022/11/25 02:45:48;;;;;;;6.25;4.22;;;10.00;96.70;;;;;;5043791;28;20147;-72
2022/11/25 02:48:19;;;;;;;5.15;4.18;;;10.00;96.70;;;;;;5059662;28;20592;-72
2022/11/25 02:51:02;;;;;;;6.07;4.20;;;10.10;96.70;;;;;;5038243;28;20052;-72
2022/11/25 02:53:30;;;;;;;5.18;4.05;;;10.10;96.70;;;;;;5044640;28;20494;-72
2022/11/25 02:56:00;;;;;;;7.75;4.50;;;10.10;96.70;;;;;;5059709;28;20048;-72
2022/11/25 02:58:29;;;;;;;4.85;3.88;;;10.10;96.70;;;;;;5063809;28;20044;-72
2022/11/25 03:00:57;;;;;;;7.55;4.10;;;10.10;96.70;;;;;;5063887;28;20040;-72
2022/11/25 03:03:25;;;;;;;4.93;3.70;;;10.10;96.70;;;;;;5048157;28;20040;-72
2022/11/25 03:05:53;;;;;;;5.18;3.83;;;10.10;96.70;;;;;;5065870;28;20041;-72
2022/11/25 03:08:21;;;;;;;6.40;3.75;;;10.00;96.70;;;;;;5064412;28;20049;-71
2022/11/25 03:10:49;;;;;;;6.00;4.47;;;10.00;96.70;;;;;;5064916;28;20071;-72
2022/11/25 03:13:18;;;;;;;6.20;4.03;;;10.00;96.70;;;;;;5065912;28;20120;-72
2022/11/25 03:15:46;;;;;;;5.82;3.85;;;10.00;96.70;;;;;;5064678;28;20046;-72
2022/11/25 03:18:14;;;;;;;6.72;3.92;;;10.00;96.70;;;;;;5063604;28;20136;-72
2022/11/25 03:20:42;;;;;;;4.45;3.70;;;10.00;96.70;;;;;;5063411;28;20057;-71
2022/11/25 03:23:10;;;;;;;3.80;3.40;;;10.00;96.70;;;;;;5064375;28;20139;-72
2022/11/25 03:25:38;;;;;;;5.65;3.60;;;10.00;96.70;;;;;;5063823;28;20131;-71
2022/11/25 03:28:07;;;;;;;4.78;3.80;;;9.90;96.70;;;;;;5064113;28;20131;-72
2022/11/25 03:30:36;;;;;;;4.10;3.70;;;10.00;96.70;;;;;;5063579;28;20105;-72
2022/11/25 03:33:04;;;;;;;7.30;4.00;;;9.90;96.70;;;;;;5057023;28;20181;-72
2022/11/25 03:35:33;;;;;;;6.40;4.20;;;9.90;96.70;;;;;;5062521;28;20045;-72
2022/11/25 03:38:01;;;;;;;4.97;3.70;;;9.90;96.70;;;;;;5065353;28;20978;-71
2022/11/25 03:40:31;;;;;;;5.50;3.58;;;10.00;96.70;;;;;;5062651;28;20573;-72
2022/11/25 03:42:59;;;;;;;5.38;4.10;;;10.00;96.70;;;;;;5064494;28;20542;-72
2022/11/25 03:45:27;;;;;;;5.30;3.78;;;10.00;96.70;;;;;;5062855;28;20044;-72
2022/11/25 03:48:00;;;;;;;4.72;3.08;;;9.90;96.70;;;;;;5046869;28;20113;-72
2022/11/25 03:50:28;;;;;;;4.22;3.53;;;10.00;96.70;;;;;;5046222;28;20063;-72
2022/11/25 03:52:56;;;;;;;4.18;3.35;;;9.90;96.70;;;;;;5063949;28;20044;-72
2022/11/25 03:55:25;;;;;;;5.00;3.78;;;9.90;96.70;;;;;;5063243;28;20052;-72
2022/11/25 03:57:54;;;;;;;5.97;3.92;;;9.90;96.70;;;;;;5063212;28;20044;-72
2022/11/25 04:00:24;;;;;;;6.57;3.53;;;9.90;96.70;;;;;;5062871;28;20509;-72
2022/11/25 04:03:01;;;;;;;4.45;3.70;;;9.90;96.70;;;;;;5058611;28;20056;-72
2022/11/25 04:05:32;;;;;;;4.57;3.47;;;9.90;96.70;;;;;;5062317;28;20049;-72
2022/11/25 04:08:05;;;;;;;5.07;3.72;;;9.90;96.70;;;;;;5057610;28;20124;-71
2022/11/25 04:10:35;;;;;;;5.30;3.53;;;9.90;96.70;;;;;;5061844;28;20142;-72
2022/11/25 04:13:04;;;;;;;3.78;3.33;;;9.90;96.70;;;;;;5062578;28;20048;-72
2022/11/25 04:15:36;;;;;;;6.30;3.72;;;9.90;96.70;;;;;;5060227;28;20044;-72
2022/11/25 04:18:07;;;;;;;6.25;3.80;;;9.90;96.70;;;;;;5061953;28;20044;-72
2022/11/25 04:20:35;;;;;;;6.03;4.18;;;10.00;96.70;;;;;;5062848;28;20097;-72
2022/11/25 04:23:07;;;;;;;7.25;4.05;;;10.00;96.70;;;;;;5046473;28;20064;-72
2022/11/25 04:25:42;;;;;;;5.55;3.78;;;10.10;96.70;;;;;;5047759;28;20040;-72
2022/11/25 04:28:21;;;;;;;4.28;3.88;;;10.10;96.70;;;;;;5047318;28;20049;-72
2022/11/25 04:30:49;;;;;;;5.00;3.97;;;10.10;96.70;;;;;;5062111;28;20106;-72
2022/11/25 04:33:19;;;;;;;6.28;4.35;;;10.00;96.70;;;;;;5044214;28;20040;-72
2022/11/25 04:35:47;;;;;;;6.57;3.95;;;10.00;96.70;;;;;;5062896;28;20052;-72
2022/11/25 04:38:16;;;;;;;5.20;3.72;;;10.00;96.70;;;;;;5062717;28;20033;-72
2022/11/25 04:40:45;;;;;;;4.75;4.15;;;10.00;96.70;;;;;;5062415;28;20664;-71
2022/11/25 04:43:17;;;;;;;4.80;4.22;;;10.10;96.70;;;;;;5045090;28;20047;-72
2022/11/25 04:46:00;;;;;;;5.60;4.40;;;10.10;96.70;;;;;;5063498;28;20437;-72
2022/11/25 04:48:49;;;;;;;5.45;4.75;;;10.10;96.70;;;;;;5047891;28;20052;-72
2022/11/25 04:51:19;;;;;;;5.90;4.70;;;10.00;96.70;;;;;;5053784;28;20052;-72
2022/11/25 04:53:50;;;;;;;6.50;4.50;;;9.90;96.70;;;;;;5062535;28;20063;-72
2022/11/25 04:56:19;;;;;;;6.32;4.85;;;10.00;96.70;;;;;;5063230;28;20086;-72
2022/11/25 05:01:41;;;;;;;4.95;4.13;;;9.90;96.70;;;;;;5054827;28;20466;-72
2022/11/25 05:04:28;;;;;;;10.55;6.47;;;9.90;96.70;;;;;;5059284;28;20676;-72
2022/11/25 05:06:56;;;;;;;6.05;4.70;;;10.00;96.70;;;;;;5061102;28;20603;-71
2022/11/25 05:09:25;;;;;;;6.00;4.25;;;10.00;96.70;;;;;;5039808;28;20064;-72
2022/11/25 05:12:14;;;;;;;6.78;4.45;;;10.00;96.70;;;;;;5047603;28;20052;-72
2022/11/25 05:14:42;;;;;;;4.95;4.40;;;10.00;96.70;;;;;;5063893;28;20537;-72
2022/11/25 05:17:13;;;;;;;5.53;4.40;;;10.10;96.70;;;;;;5059834;28;20052;-72
2022/11/25 05:19:44;;;;;;;5.88;4.63;;;10.00;96.70;;;;;;5053557;28;20473;-72
2022/11/25 05:22:15;;;;;;;6.53;4.60;;;10.00;96.70;;;;;;5043807;28;20041;-71
2022/11/25 05:24:45;;;;;;;7.18;4.70;;;10.00;96.70;;;;;;5060714;28;20068;-72
2022/11/25 05:27:14;;;;;;;4.88;4.38;;;10.00;96.70;;;;;;5092831;28;20044;-72
2022/11/25 05:29:43;;;;;;;4.95;4.28;;;10.00;96.70;;;;;;5060865;28;20050;-72
2022/11/25 05:32:12;;;;;;;6.35;4.40;;;10.00;96.70;;;;;;5061081;28;20048;-71
2022/11/25 05:34:42;;;;;;;6.18;4.53;;;10.10;96.70;;;;;;5060822;28;20044;-71
2022/11/25 05:37:13;;;;;;;7.68;4.18;;;10.10;96.70;;;;;;5061970;28;20080;-72
2022/11/25 05:39:51;;;;;;;7.43;4.38;;;10.00;96.70;;;;;;5061076;28;20095;-73
2022/11/25 05:42:38;;;;;;;5.40;4.38;;;9.90;96.70;;;;;;5063218;28;20060;-72
2022/11/25 05:45:08;;;;;;;5.53;4.57;;;10.00;96.70;;;;;;5060467;28;20047;-71
2022/11/25 05:47:37;;;;;;;5.88;3.58;;;10.00;96.70;;;;;;5060779;28;20145;-71
2022/11/25 05:50:08;;;;;;;4.25;3.85;;;10.00;96.70;;;;;;5060421;28;20077;-71
2022/11/25 05:52:36;;;;;;;4.55;4.03;;;10.00;96.70;;;;;;5061488;28;20052;-71
2022/11/25 05:55:05;;;;;;;4.85;3.83;;;10.00;96.70;;;;;;5044108;28;20150;-72
2022/11/25 05:57:33;;;;;;;5.53;4.13;;;10.00;96.70;;;;;;5061140;28;20109;-71
2022/11/25 06:00:09;;;;;;;5.88;3.97;;;10.00;96.70;;;;;;5042149;28;20274;-72
2022/11/25 06:02:49;;;;;;;6.30;4.82;;;10.00;96.70;;;;;;5059343;28;20045;-71
2022/11/25 06:05:20;;;;;;;6.70;4.20;;;10.00;96.70;;;;;;5060189;28;20079;-72
2022/11/25 06:07:51;;;;;;;4.88;4.38;;;10.00;96.70;;;;;;5059506;28;20037;-71
2022/11/25 06:10:21;;;;;;;9.68;4.95;;;10.00;96.70;;;;;;5060288;28;20509;-71
2022/11/25 06:12:52;;;;;;;6.13;4.75;;;10.00;96.70;;;;;;5060108;28;20053;-72
2022/11/25 06:15:20;;;;;;;5.60;4.00;;;10.00;96.70;;;;;;5060922;28;20135;-72
2022/11/25 06:17:49;;;;;;;6.03;4.63;;;10.10;96.70;;;;;;5059417;28;20040;-72
2022/11/25 06:20:25;;;;;;;8.27;5.00;;;10.10;96.70;;;;;;5059352;28;20076;-72
2022/11/25 06:22:54;;;;;;;5.80;4.57;;;10.10;96.70;;;;;;5060120;28;20044;-72
2022/11/25 06:25:28;;;;;;;7.13;4.55;;;10.10;96.70;;;;;;5045338;28;20391;-71
2022/11/25 06:27:57;;;;;;;8.23;4.97;;;10.10;96.70;;;;;;5060388;28;20056;-72
2022/11/25 06:30:42;;;;;;;6.25;4.53;;;10.10;96.70;;;;;;5060593;28;20056;-72
2022/11/25 06:33:20;;;;;;;7.10;4.68;;;10.10;96.70;;;;;;5044019;28;20063;-72
2022/11/25 06:35:50;;;;;;;6.13;4.60;;;10.20;96.70;;;;;;5044323;28;20543;-72
2022/11/25 06:38:18;;;;;;;6.65;4.70;;;10.10;96.70;;;;;;5061293;28;20059;-69
2022/11/25 06:40:46;;;;;;;6.35;5.35;;;10.10;96.70;;;;;;5062305;28;20581;-69
2022/11/25 06:43:14;;;;;;;5.57;4.50;;;10.10;96.70;;;;;;5059418;28;20820;-69
2022/11/25 06:45:42;;;;;;;8.02;5.28;;;10.20;96.70;;;;;;5062487;28;20055;-69
2022/11/25 06:48:11;;;;;;;9.60;4.97;;;10.20;96.70;;;;;;5059273;28;20048;-69
2022/11/25 06:50:39;;;;;;;6.25;4.88;;;10.20;96.70;;;;;;5061954;28;20076;-69
2022/11/25 06:53:08;;;;;;;7.03;5.13;;;10.30;96.70;;;;;;5059499;28;20044;-71
2022/11/25 06:55:36;;;;;;;5.32;4.55;;;10.30;96.70;;;;;;5061960;28;20048;-71
2022/11/25 06:58:04;;;;;;;6.97;5.05;;;10.30;96.70;;;;;;5059189;28;20136;-70
2022/11/25 07:00:53;;;;;;;10.63;5.65;;;10.30;96.70;;;;;;5057068;28;20068;-70
2022/11/25 07:03:20;;;;;;;7.80;5.55;;;10.30;96.70;;;;;;5061780;28;20118;-70
2022/11/25 07:05:49;;;;;;;10.95;6.50;;;10.30;96.70;;;;;;5059379;28;20056;-70
2022/11/25 07:08:18;;;;;;;8.00;5.45;;;10.30;96.70;;;;;;5057618;28;20045;-70
2022/11/25 07:10:46;;;;;;;7.53;5.35;;;10.30;96.70;;;;;;5059765;28;20094;-71
2022/11/25 07:13:14;;;;;;;9.80;5.97;;;10.40;96.70;;;;;;5060056;28;20063;-71
2022/11/25 07:15:42;;;;;;;7.88;5.82;;;10.40;96.70;;;;;;5058488;28;20049;-71
2022/11/25 07:18:11;;;;;;;9.85;6.03;;;10.50;96.70;;;;;;5061342;28;20068;-70
2022/11/25 07:20:40;;;;;;;8.85;5.70;;;10.50;96.70;;;;;;5059099;28;20123;-70
2022/11/25 07:23:08;;;;;;;9.60;5.85;;;10.50;96.70;;;;;;5061673;28;20041;-70
2022/11/25 07:25:37;;;;;;;6.72;5.72;;;10.60;96.70;;;;;;5060093;28;20122;-70
2022/11/25 07:28:05;;;;;;;6.82;5.50;;;10.60;96.70;;;;;;5060455;28;21095;-71
2022/11/25 07:30:34;;;;;;;8.20;5.88;;;10.60;96.70;;;;;;5061254;28;20040;-70
2022/11/25 07:33:22;;;;;;;7.55;5.80;;;10.60;96.70;;;;;;5061102;28;20040;-71
2022/11/25 07:35:50;;;;;;;9.55;6.18;;;10.60;96.70;;;;;;5061058;28;20102;-71
2022/11/25 07:38:19;;;;;;;7.13;5.47;;;10.70;96.70;;;;;;5043889;28;20045;-71
2022/11/25 07:40:49;;;;;;;8.02;5.85;;;10.70;96.70;;;;;;5061023;28;20047;-70
2022/11/25 07:43:17;;;;;;;13.82;8.77;;;10.80;96.70;;;;;;5062165;28;20494;-71
2022/11/25 07:45:45;;;;;;;12.95;8.45;;;10.80;96.70;;;;;;5062265;28;20361;-70
2022/11/25 07:48:13;;;;;;;14.43;7.50;;;10.90;96.70;;;;;;5063140;28;20044;-70
2022/11/25 07:50:41;;;;;;;8.80;5.75;;;11.00;96.70;;;;;;5062400;28;20044;-70
2022/11/25 07:53:09;;;;;;;9.52;5.97;;;11.00;96.70;;;;;;5064236;28;20059;-71
2022/11/25 07:55:37;;;;;;;9.82;6.03;;;11.10;96.70;;;;;;5060220;28;20103;-70
2022/11/25 07:58:07;;;;;;;9.02;6.85;;;11.10;96.70;;;;;;5064700;28;20044;-70
2022/11/25 08:00:35;;;;;;;9.85;6.50;;;11.10;96.70;;;;;;5064307;28;20059;-70
2022/11/25 08:03:03;;;;;;;8.23;6.20;;;11.10;96.70;;;;;;5064290;28;20500;-71
2022/11/25 08:05:32;;;;;;;9.43;5.88;;;11.10;96.70;;;;;;5063717;28;20044;-70
2022/11/25 08:08:01;;;;;;;7.90;5.85;;;11.10;96.70;;;;;;5064258;28;20698;-70
2022/11/25 08:10:29;;;;;;;7.70;5.20;;;11.10;96.70;;;;;;5064198;28;20044;-70
2022/11/25 08:12:57;;;;;;;6.82;4.97;;;11.10;96.70;;;;;;5064163;28;20045;-70
2022/11/25 08:15:27;;;;;;;8.65;4.97;;;11.10;96.70;;;;;;5063746;28;21072;-69
2022/11/25 08:17:55;;;;;;;6.07;4.78;;;11.10;96.70;;;;;;5061704;28;20874;-70
2022/11/25 08:20:23;;;;;;;9.43;4.63;;;11.10;96.70;;;;;;5063882;28;20032;-70
2022/11/25 08:22:52;;;;;;;6.10;4.38;;;11.10;96.70;;;;;;5063652;28;20067;-70
2022/11/25 08:25:20;;;;;;;6.30;4.40;;;11.10;96.70;;;;;;5062052;28;20079;-70
2022/11/25 08:27:48;;;;;;;5.95;4.07;;;11.10;96.70;;;;;;5055370;28;20433;-70
2022/11/25 08:30:19;;;;;;;6.00;4.07;;;11.10;96.70;;;;;;5063152;28;20045;-70
2022/11/25 08:32:49;;;;;;;5.55;3.95;;;11.10;96.70;;;;;;5062204;28;20577;-70
2022/11/25 08:35:17;;;;;;;5.65;4.22;;;11.10;96.70;;;;;;5064360;28;20049;-70
2022/11/25 08:37:46;;;;;;;8.95;4.50;;;11.10;96.70;;;;;;5061512;28;20139;-70
2022/11/25 08:40:14;;;;;;;5.78;4.38;;;11.20;96.70;;;;;;5062806;28;20402;-70
2022/11/25 08:42:43;;;;;;;6.57;4.72;;;11.20;96.70;;;;;;5045376;28;20052;-70
2022/11/25 08:45:11;;;;;;;8.05;5.13;;;11.20;96.70;;;;;;5064386;28;20041;-70
2022/11/25 08:47:39;;;;;;;10.25;5.60;;;11.30;96.70;;;;;;5045260;28;20044;-69
2022/11/25 08:50:12;;;;;;;8.68;5.47;;;11.30;96.70;;;;;;5062459;28;20518;-70
2022/11/25 08:52:41;;;;;;;8.10;6.07;;;11.30;96.70;;;;;;5063107;28;20048;-70
2022/11/25 08:55:09;;;;;;;9.95;6.35;;;11.30;96.70;;;;;;5063215;28;20525;-71
2022/11/25 08:57:38;;;;;;;8.15;6.18;;;11.30;96.70;;;;;;5061397;28;20040;-70
2022/11/25 09:00:07;;;;;;;6.32;5.32;;;11.30;96.70;;;;;;5064117;28;20052;-70
2022/11/25 09:02:35;;;;;;;8.38;6.53;;;11.30;96.70;;;;;;5062927;28;20041;-70
2022/11/25 09:05:04;;;;;;;10.20;6.35;;;11.30;96.70;;;;;;5061272;28;20486;-70
2022/11/25 09:07:34;;;;;;;9.63;6.45;;;11.40;96.70;;;;;;5061605;28;20056;-70
2022/11/25 09:10:02;;;;;;;9.70;6.22;;;11.40;96.70;;;;;;5062373;28;20384;-70
2022/11/25 09:12:30;;;;;;;10.07;6.78;;;11.40;96.70;;;;;;5061037;28;20647;-70
2022/11/25 09:14:58;;;;;;;10.15;6.82;;;11.50;96.70;;;;;;5045612;28;20426;-70
2022/11/25 09:17:26;;;;;;;13.90;7.75;;;11.50;96.70;;;;;;5062330;28;20044;-70
2022/11/25 09:19:54;;;;;;;9.75;6.88;;;11.60;96.70;;;;;;5063315;28;20076;-70
2022/11/25 09:22:22;;;;;;;12.02;8.52;;;11.70;96.70;;;;;;5062791;28;20046;-70
2022/11/25 09:24:52;;;;;;;11.23;8.23;;;11.70;96.70;;;;;;5063649;28;20036;-70
2022/11/25 09:27:20;;;;;;;12.70;7.75;;;11.80;96.70;;;;;;5062862;28;20064;-70
2022/11/25 09:29:48;;;;;;;10.43;7.57;;;11.90;96.70;;;;;;5063566;28;20402;-70
2022/11/25 09:32:17;;;;;;;11.10;7.57;;;12.00;96.70;;;;;;5059835;28;20067;-70
2022/11/25 09:34:44;;;;;;;10.65;6.78;;;12.10;96.70;;;;;;5063148;28;20122;-70
2022/11/25 09:37:13;;;;;;;9.23;6.45;;;12.20;96.70;;;;;;5061799;28;20513;-70
2022/11/25 09:39:41;;;;;;;11.20;6.70;;;12.30;96.70;;;;;;5060960;28;20051;-70
2022/11/25 09:48:20;;;;;;;8.77;5.88;;;12.50;96.70;;;;;;5061244;28;20162;-70
2022/11/25 09:50:57;;;;;;;7.60;5.47;;;12.50;96.70;;;;;;5054812;28;20723;-70
2022/11/25 09:53:40;;;;;;;8.98;6.60;;;12.60;96.70;;;;;;5061061;28;20125;-70
2022/11/25 09:56:17;;;;;;;7.53;6.15;;;12.60;96.70;;;;;;5060251;28;20040;-71
2022/11/25 09:58:51;;;;;;;11.05;6.50;;;12.70;96.70;;;;;;5062653;28;20682;-71
2022/11/25 10:01:23;;;;;;;8.40;6.78;;;12.70;96.70;;;;;;5061730;28;20051;-71
2022/11/25 10:03:56;;;;;;;11.57;7.07;;;12.70;96.70;;;;;;5060884;28;20098;-71
2022/11/25 10:06:26;;;;;;;12.65;8.25;;;12.70;96.70;;;;;;5060924;28;20106;-71
2022/11/25 10:08:57;;;;;;;12.57;8.43;;;12.80;96.70;;;;;;5060390;28;20048;-71
2022/11/25 10:11:41;;;;;;;9.35;7.55;;;12.80;96.70;;;;;;5059188;28;20111;-71
2022/11/25 10:14:20;;;;;;;10.43;6.70;;;12.80;96.70;;;;;;5060243;28;20131;-71
2022/11/25 10:16:51;;;;;;;8.38;6.68;;;12.80;96.70;;;;;;5055581;28;20045;-71
2022/11/25 10:19:32;;;;;;;13.57;9.27;;;12.80;96.70;;;;;;5043801;28;20044;-71
2022/11/25 10:22:13;;;;;;;10.32;7.50;;;12.80;96.70;;;;;;5062295;28;20044;-71
2022/11/25 10:24:41;;;;;;;8.35;5.60;;;12.70;96.70;;;;;;5056546;28;20536;-71
2022/11/25 10:27:18;;;;;;;11.57;7.07;;;12.70;96.70;;;;;;5061429;28;20044;-71
2022/11/25 10:29:58;;;;;;;7.88;5.78;;;12.70;96.70;;;;;;5060283;28;20048;-70
2022/11/25 10:32:33;;;;;;;8.82;5.95;;;12.70;96.70;;;;;;5061158;28;20045;-71
2022/11/25 10:35:10;;;;;;;9.32;6.35;;;12.70;96.70;;;;;;5060046;28;20881;-71
2022/11/25 10:37:41;;;;;;;9.35;5.78;;;12.80;96.70;;;;;;5060264;28;20040;-71
2022/11/25 10:40:14;;;;;;;9.05;6.05;;;12.80;96.70;;;;;;5061608;28;20494;-71
2022/11/25 10:42:43;;;;;;;8.68;5.63;;;12.80;96.70;;;;;;5052835;28;20047;-71
2022/11/25 10:45:12;;;;;;;7.20;5.57;;;12.80;96.70;;;;;;5044274;28;20517;-71
2022/11/25 10:48:05;;;;;;;8.60;5.90;;;12.80;96.70;;;;;;5061081;28;20040;-71
2022/11/25 10:50:41;;;;;;;8.32;5.38;;;12.80;96.70;;;;;;5062055;28;20045;-71
2022/11/25 10:53:12;;;;;;;13.73;9.00;;;12.80;96.70;;;;;;5060117;28;20135;-71
2022/11/25 10:55:56;;;;;;;12.73;8.25;;;12.80;96.70;;;;;;5061065;28;20062;-71
2022/11/25 10:58:33;;;;;;;10.98;7.43;;;12.80;96.70;;;;;;5060419;28;20502;-71
2022/11/25 11:01:05;;;;;;;10.15;7.07;;;12.80;96.70;;;;;;5053388;28;20057;-71
2022/11/25 11:03:34;;;;;;;10.63;6.50;;;12.90;96.70;;;;;;5058418;28;20161;-71
2022/11/25 11:06:02;;;;;;;9.13;6.20;;;12.90;96.70;;;;;;5060656;28;20796;-71
2022/11/25 11:08:38;;;;;;;10.98;6.47;;;12.90;96.70;;;;;;5059300;28;20084;-71
2022/11/25 11:11:24;;;;;;;9.80;8.20;;;13.00;96.70;;;;;;5052196;28;20044;-71
2022/11/25 11:14:09;;;;;;;9.98;7.25;;;13.00;96.70;;;;;;5040248;28;20306;-71
2022/11/25 11:16:41;;;;;;;9.60;7.38;;;13.00;96.70;;;;;;5058994;28;20131;-71
2022/11/25 11:19:22;;;;;;;8.63;5.60;;;13.00;96.70;;;;;;5055815;28;20153;-71
2022/11/25 11:21:51;;;;;;;9.63;6.03;;;13.00;96.70;;;;;;5064143;28;20056;-71
2022/11/25 11:24:30;;;;;;;7.93;5.53;;;13.00;96.70;;;;;;5064491;28;20044;-71
2022/11/25 11:27:04;;;;;;;6.60;5.07;;;13.10;96.70;;;;;;5058700;28;20142;-71
2022/11/25 11:29:32;;;;;;;8.27;5.97;;;13.10;96.70;;;;;;5065795;28;20055;-70
2022/11/25 11:32:03;;;;;;;8.85;6.22;;;13.10;96.70;;;;;;5062571;28;20114;-70
2022/11/25 11:34:56;;;;;;;8.88;5.32;;;13.10;96.70;;;;;;5045580;28;20676;-71
2022/11/25 11:37:38;;;;;;;7.50;5.10;;;13.00;96.70;;;;;;5062536;28;20110;-71
2022/11/25 11:40:24;;;;;;;7.32;5.75;;;13.00;96.70;;;;;;5062069;28;21046;-71
2022/11/25 11:43:19;;;;;;;10.40;6.45;;;13.00;96.70;;;;;;5062327;28;20044;-71
2022/11/25 11:46:02;;;;;;;9.15;6.93;;;13.10;96.70;;;;;;5064446;28;20505;-70
2022/11/25 11:48:38;;;;;;;9.20;6.65;;;13.10;96.70;;;;;;5060936;28;20044;-71
2022/11/25 11:51:16;;;;;;;9.10;6.03;;;13.00;96.70;;;;;;5063255;28;20453;-70
2022/11/25 11:53:54;;;;;;;9.55;6.75;;;13.00;96.70;;;;;;5063822;28;20797;-71
2022/11/25 11:56:31;;;;;;;10.80;6.78;;;13.00;96.70;;;;;;5062896;28;20044;-71
2022/11/25 11:59:29;;;;;;;8.15;6.22;;;12.90;96.70;;;;;;5063849;28;20047;-71
2022/11/25 12:02:13;;;;;;;11.40;7.72;;;12.90;96.70;;;;;;5062928;28;20048;-71
2022/11/25 12:04:50;;;;;;;12.30;8.75;;;12.80;96.70;;;;;;5046735;28;20057;-71
2022/11/25 12:07:23;;;;;;;11.32;8.50;;;12.80;96.70;;;;;;5060970;28;20067;-71
2022/11/25 12:09:57;;;;;;;11.07;7.93;;;12.70;96.70;;;;;;5063098;28;20109;-71
2022/11/25 12:12:33;;;;;;;10.25;8.02;;;12.70;96.70;;;;;;5063238;28;20055;-71
2022/11/25 12:15:08;;;;;;;15.35;8.93;;;12.70;96.70;;;;;;5062865;28;20048;-71
2022/11/25 12:17:43;;;;;;;11.10;8.43;;;12.60;96.70;;;;;;5062935;28;20051;-71
2022/11/25 12:20:21;;;;;;;10.55;9.13;;;12.60;96.70;;;;;;5063415;28;20079;-71
2022/11/25 12:22:57;;;;;;;11.73;9.18;;;12.50;96.70;;;;;;5057483;28;20044;-70
2022/11/25 12:25:30;;;;;;;14.93;10.05;;;12.50;96.70;;;;;;5064425;28;20041;-71
2022/11/25 12:28:02;;;;;;;13.65;10.88;;;12.50;96.70;;;;;;5061142;28;20160;-71
2022/11/25 12:30:35;;;;;;;13.32;10.88;;;12.40;96.70;;;;;;5062083;28;20064;-71
2022/11/25 12:33:11;;;;;;;16.92;12.18;;;12.40;96.70;;;;;;5061823;28;20514;-71
2022/11/25 12:35:48;;;;;;;14.32;11.38;;;12.40;96.70;;;;;;5062268;28;20136;-72
2022/11/25 12:38:22;;;;;;;15.05;10.88;;;12.40;96.70;;;;;;5063443;28;20605;-71
2022/11/25 12:41:00;;;;;;;14.73;11.25;;;12.40;96.70;;;;;;5064426;28;20434;-71
2022/11/25 12:43:36;;;;;;;13.00;10.35;;;12.30;96.70;;;;;;5057929;28;20151;-70
2022/11/25 12:46:07;;;;;;;;;;;12.30;96.70;;;;;;5063284;28;20206;-71
2022/11/25 12:48:40;;;;;;;18.17;14.18;;;12.30;96.70;;;;;;5061237;28;19924;-71
2022/11/25 12:51:23;;;;;;;24.88;17.42;;;12.30;96.70;;;;;;5062449;28;20080;-71
2022/11/25 12:54:05;;;;;;;26.90;18.35;;;12.20;96.70;;;;;;5061547;28;20052;-70
2022/11/25 12:56:50;;;;;;;17.00;13.45;;;12.30;96.70;;;;;;5063634;28;20114;-71
2022/11/25 12:59:43;;;;;;;21.48;16.75;;;12.20;96.70;;;;;;5064240;28;20044;-71
2022/11/25 13:02:33;;;;;;;21.30;17.42;;;12.20;96.70;;;;;;5061122;28;20040;-70
2022/11/25 13:05:35;;;;;;;18.65;14.65;;;12.20;96.70;;;;;;5062285;28;20143;-71
2022/11/25 13:08:25;;;;;;;22.52;18.38;;;12.20;96.70;;;;;;5057711;28;20520;-70
2022/11/25 13:11:06;;;;;;;21.45;15.23;;;12.20;96.70;;;;;;5059063;28;20147;-70
2022/11/25 13:13:48;;;;;;;16.40;14.35;;;12.20;96.70;;;;;;5061317;28;20041;-70
2022/11/25 13:16:19;;;;;;;19.60;15.35;;;12.20;96.70;;;;;;5062503;28;20033;-70
2022/11/25 13:18:49;;;;;;;21.50;16.88;;;12.20;96.70;;;;;;5061904;28;20171;-71
2022/11/25 13:21:18;;;;;;;22.85;17.88;;;12.20;96.70;;;;;;5062046;28;20040;-70